sensor_id;sensor_type;location;lat;lon;timestamp;P1;durP1;ratioP1;P2;durP2;ratioP2
3465;SDS011;1747;48.884;9.160;2024-02-14T00:02:21;12.80;;;5.95;;
3465;SDS011;1747;48.884;9.160;2024-02-14T00:04:50;9.93;;;5.20;;
3465;SDS011;1747;48.884;9.160;2024-02-14T00:07:19;9.95;;;5.20;;
3465;SDS011;1747;48.884;9.160;2024-02-14T00:09:46;15.18;;;6.00;;
3465;SDS011;1747;48.884;9.160;2024-02-14T00:12:13;11.23;;;5.05;;
3465;SDS011;1747;48.884;9.160;2024-02-14T00:14:40;12.73;;;5.03;;
3465;SDS011;1747;48.884;9.160;2024-02-14T00:17:07;9.68;;;5.03;;
3465;SDS011;1747;48.884;9.160;2024-02-14T00:19:35;10.40;;;5.05;;
3465;SDS011;1747;48.884;9.160;2024-02-14T00:22:02;10.30;;;4.90;;
3465;SDS011;1747;48.884;9.160;2024-02-14T00:24:30;15.00;;;5.10;;
3465;SDS011;1747;48.884;9.160;2024-02-14T00:26:57;8.82;;;4.82;;
3465;SDS011;1747;48.884;9.160;2024-02-14T00:29:25;8.77;;;4.93;;
3465;SDS011;1747;48.884;9.160;2024-02-14T00:31:52;12.02;;;5.30;;
3465;SDS011;1747;48.884;9.160;2024-02-14T00:34:19;7.40;;;4.32;;
3465;SDS011;1747;48.884;9.160;2024-02-14T00:36:46;8.05;;;4.65;;
3465;SDS011;1747;48.884;9.160;2024-02-14T00:39:13;11.48;;;4.47;;
3465;SDS011;1747;48.884;9.160;2024-02-14T00:41:41;6.95;;;4.30;;
3465;SDS011;1747;48.884;9.160;2024-02-14T00:44:08;11.23;;;5.10;;
3465;SDS011;1747;48.884;9.160;2024-02-14T00:46:34;10.02;;;4.88;;
3465;SDS011;1747;48.884;9.160;2024-02-14T00:49:01;12.90;;;5.07;;
3465;SDS011;1747;48.884;9.160;2024-02-14T00:51:28;12.85;;;4.50;;
3465;SDS011;1747;48.884;9.160;2024-02-14T00:53:55;9.68;;;5.43;;
3465;SDS011;1747;48.884;9.160;2024-02-14T00:56:22;13.02;;;4.93;;
3465;SDS011;1747;48.884;9.160;2024-02-14T00:58:50;8.35;;;4.90;;
3465;SDS011;1747;48.884;9.160;2024-02-14T01:01:17;6.90;;;4.55;;
3465;SDS011;1747;48.884;9.160;2024-02-14T01:03:44;11.45;;;4.68;;
3465;SDS011;1747;48.884;9.160;2024-02-14T01:06:11;9.77;;;4.13;;
3465;SDS011;1747;48.884;9.160;2024-02-14T01:08:39;11.13;;;5.35;;
3465;SDS011;1747;48.884;9.160;2024-02-14T01:11:06;13.23;;;5.47;;
3465;SDS011;1747;48.884;9.160;2024-02-14T01:13:33;11.23;;;5.18;;
3465;SDS011;1747;48.884;9.160;2024-02-14T01:16:01;9.25;;;4.00;;
3465;SDS011;1747;48.884;9.160;2024-02-14T01:18:29;7.68;;;4.57;;
3465;SDS011;1747;48.884;9.160;2024-02-14T01:20:56;10.57;;;4.13;;
3465;SDS011;1747;48.884;9.160;2024-02-14T01:23:23;10.70;;;4.40;;
3465;SDS011;1747;48.884;9.160;2024-02-14T01:25:50;8.55;;;4.85;;
3465;SDS011;1747;48.884;9.160;2024-02-14T01:28:19;8.32;;;4.22;;
3465;SDS011;1747;48.884;9.160;2024-02-14T01:30:46;8.73;;;4.07;;
3465;SDS011;1747;48.884;9.160;2024-02-14T01:33:14;9.63;;;3.67;;
3465;SDS011;1747;48.884;9.160;2024-02-14T01:35:41;7.00;;;3.97;;
3465;SDS011;1747;48.884;9.160;2024-02-14T01:38:08;7.38;;;3.90;;
3465;SDS011;1747;48.884;9.160;2024-02-14T01:40:37;7.10;;;3.38;;
3465;SDS011;1747;48.884;9.160;2024-02-14T01:43:03;7.90;;;3.53;;
3465;SDS011;1747;48.884;9.160;2024-02-14T01:45:30;8.60;;;3.67;;
3465;SDS011;1747;48.884;9.160;2024-02-14T01:47:57;10.48;;;3.95;;
3465;SDS011;1747;48.884;9.160;2024-02-14T01:50:25;5.85;;;3.95;;
3465;SDS011;1747;48.884;9.160;2024-02-14T01:52:55;6.20;;;3.70;;
3465;SDS011;1747;48.884;9.160;2024-02-14T01:55:24;6.07;;;3.65;;
3465;SDS011;1747;48.884;9.160;2024-02-14T01:57:53;9.15;;;3.80;;
3465;SDS011;1747;48.884;9.160;2024-02-14T02:00:20;6.07;;;3.22;;
3465;SDS011;1747;48.884;9.160;2024-02-14T02:02:47;6.03;;;3.45;;
3465;SDS011;1747;48.884;9.160;2024-02-14T02:05:14;7.72;;;3.60;;
3465;SDS011;1747;48.884;9.160;2024-02-14T02:07:43;9.88;;;3.92;;
3465;SDS011;1747;48.884;9.160;2024-02-14T02:10:13;9.85;;;3.53;;
3465;SDS011;1747;48.884;9.160;2024-02-14T02:12:40;7.25;;;3.60;;
3465;SDS011;1747;48.884;9.160;2024-02-14T02:15:07;7.15;;;3.35;;
3465;SDS011;1747;48.884;9.160;2024-02-14T02:17:36;7.10;;;3.70;;
3465;SDS011;1747;48.884;9.160;2024-02-14T02:20:03;8.68;;;3.90;;
3465;SDS011;1747;48.884;9.160;2024-02-14T02:22:32;9.00;;;3.53;;
3465;SDS011;1747;48.884;9.160;2024-02-14T02:25:01;8.70;;;3.78;;
3465;SDS011;1747;48.884;9.160;2024-02-14T02:27:31;6.15;;;3.72;;
3465;SDS011;1747;48.884;9.160;2024-02-14T02:30:00;7.65;;;3.60;;
3465;SDS011;1747;48.884;9.160;2024-02-14T02:32:29;7.60;;;3.63;;
3465;SDS011;1747;48.884;9.160;2024-02-14T02:34:56;5.45;;;3.45;;
3465;SDS011;1747;48.884;9.160;2024-02-14T02:37:23;6.38;;;3.80;;
3465;SDS011;1747;48.884;9.160;2024-02-14T02:39:50;5.38;;;2.85;;
3465;SDS011;1747;48.884;9.160;2024-02-14T02:42:18;5.07;;;2.80;;
3465;SDS011;1747;48.884;9.160;2024-02-14T02:44:46;5.28;;;2.42;;
3465;SDS011;1747;48.884;9.160;2024-02-14T02:47:13;4.70;;;2.55;;
3465;SDS011;1747;48.884;9.160;2024-02-14T02:49:41;5.57;;;2.53;;
3465;SDS011;1747;48.884;9.160;2024-02-14T02:52:09;6.05;;;2.70;;
3465;SDS011;1747;48.884;9.160;2024-02-14T02:54:36;5.38;;;2.60;;
3465;SDS011;1747;48.884;9.160;2024-02-14T02:57:06;9.10;;;2.53;;
3465;SDS011;1747;48.884;9.160;2024-02-14T02:59:35;3.15;;;2.15;;
3465;SDS011;1747;48.884;9.160;2024-02-14T03:02:01;3.97;;;2.15;;
3465;SDS011;1747;48.884;9.160;2024-02-14T03:04:28;4.80;;;2.33;;
3465;SDS011;1747;48.884;9.160;2024-02-14T03:06:56;4.50;;;2.10;;
3465;SDS011;1747;48.884;9.160;2024-02-14T03:09:24;3.20;;;1.75;;
3465;SDS011;1747;48.884;9.160;2024-02-14T03:11:51;6.57;;;2.03;;
3465;SDS011;1747;48.884;9.160;2024-02-14T03:14:21;3.58;;;2.10;;
3465;SDS011;1747;48.884;9.160;2024-02-14T03:16:50;4.72;;;2.53;;
3465;SDS011;1747;48.884;9.160;2024-02-14T03:19:17;4.18;;;1.90;;
3465;SDS011;1747;48.884;9.160;2024-02-14T03:21:44;4.30;;;2.00;;
3465;SDS011;1747;48.884;9.160;2024-02-14T03:24:11;4.88;;;2.15;;
3465;SDS011;1747;48.884;9.160;2024-02-14T03:26:39;3.25;;;1.88;;
3465;SDS011;1747;48.884;9.160;2024-02-14T03:29:07;4.80;;;2.20;;
3465;SDS011;1747;48.884;9.160;2024-02-14T03:31:34;6.28;;;2.30;;
3465;SDS011;1747;48.884;9.160;2024-02-14T03:34:02;4.55;;;2.60;;
3465;SDS011;1747;48.884;9.160;2024-02-14T03:36:30;4.13;;;2.20;;
3465;SDS011;1747;48.884;9.160;2024-02-14T03:38:57;8.27;;;2.88;;
3465;SDS011;1747;48.884;9.160;2024-02-14T03:41:25;5.03;;;2.90;;
3465;SDS011;1747;48.884;9.160;2024-02-14T03:43:53;5.80;;;3.10;;
3465;SDS011;1747;48.884;9.160;2024-02-14T03:46:23;7.85;;;2.83;;
3465;SDS011;1747;48.884;9.160;2024-02-14T03:48:50;5.97;;;3.17;;
3465;SDS011;1747;48.884;9.160;2024-02-14T03:51:18;5.80;;;2.83;;
3465;SDS011;1747;48.884;9.160;2024-02-14T03:53:45;8.38;;;3.13;;
3465;SDS011;1747;48.884;9.160;2024-02-14T03:56:13;5.80;;;2.92;;
3465;SDS011;1747;48.884;9.160;2024-02-14T03:58:41;5.03;;;2.83;;
3465;SDS011;1747;48.884;9.160;2024-02-14T04:01:08;5.88;;;2.60;;
3465;SDS011;1747;48.884;9.160;2024-02-14T04:03:35;4.43;;;2.20;;
3465;SDS011;1747;48.884;9.160;2024-02-14T04:06:02;4.22;;;2.22;;
3465;SDS011;1747;48.884;9.160;2024-02-14T04:08:30;7.78;;;2.78;;
3465;SDS011;1747;48.884;9.160;2024-02-14T04:10:58;5.78;;;2.25;;
3465;SDS011;1747;48.884;9.160;2024-02-14T04:13:25;4.82;;;2.40;;
3465;SDS011;1747;48.884;9.160;2024-02-14T04:15:51;6.32;;;2.47;;
3465;SDS011;1747;48.884;9.160;2024-02-14T04:18:18;4.65;;;1.90;;
3465;SDS011;1747;48.884;9.160;2024-02-14T04:20:45;5.65;;;2.53;;
3465;SDS011;1747;48.884;9.160;2024-02-14T04:23:12;6.82;;;2.60;;
3465;SDS011;1747;48.884;9.160;2024-02-14T04:25:41;4.55;;;2.35;;
3465;SDS011;1747;48.884;9.160;2024-02-14T04:28:07;5.95;;;2.78;;
3465;SDS011;1747;48.884;9.160;2024-02-14T04:30:36;5.55;;;2.42;;
3465;SDS011;1747;48.884;9.160;2024-02-14T04:33:03;5.63;;;2.70;;
3465;SDS011;1747;48.884;9.160;2024-02-14T04:35:31;7.53;;;2.17;;
3465;SDS011;1747;48.884;9.160;2024-02-14T04:37:59;4.68;;;1.35;;
3465;SDS011;1747;48.884;9.160;2024-02-14T04:40:26;4.43;;;1.40;;
3465;SDS011;1747;48.884;9.160;2024-02-14T04:42:54;2.45;;;1.30;;
3465;SDS011;1747;48.884;9.160;2024-02-14T04:45:21;2.30;;;1.50;;
3465;SDS011;1747;48.884;9.160;2024-02-14T04:47:47;5.63;;;2.35;;
3465;SDS011;1747;48.884;9.160;2024-02-14T04:50:14;4.20;;;1.30;;
3465;SDS011;1747;48.884;9.160;2024-02-14T04:52:41;3.35;;;1.80;;
3465;SDS011;1747;48.884;9.160;2024-02-14T04:55:08;3.85;;;1.75;;
3465;SDS011;1747;48.884;9.160;2024-02-14T04:57:35;2.25;;;1.30;;
3465;SDS011;1747;48.884;9.160;2024-02-14T05:00:05;3.75;;;1.48;;
3465;SDS011;1747;48.884;9.160;2024-02-14T05:02:34;2.33;;;1.50;;
3465;SDS011;1747;48.884;9.160;2024-02-14T05:05:01;4.72;;;1.48;;
3465;SDS011;1747;48.884;9.160;2024-02-14T05:07:28;3.03;;;1.60;;
3465;SDS011;1747;48.884;9.160;2024-02-14T05:09:55;3.90;;;1.60;;
3465;SDS011;1747;48.884;9.160;2024-02-14T05:12:22;2.65;;;1.20;;
3465;SDS011;1747;48.884;9.160;2024-02-14T05:14:49;4.20;;;1.85;;
3465;SDS011;1747;48.884;9.160;2024-02-14T05:17:17;2.92;;;1.42;;
3465;SDS011;1747;48.884;9.160;2024-02-14T05:19:44;4.07;;;1.58;;
3465;SDS011;1747;48.884;9.160;2024-02-14T05:22:10;6.40;;;1.60;;
3465;SDS011;1747;48.884;9.160;2024-02-14T05:24:37;2.97;;;1.48;;
3465;SDS011;1747;48.884;9.160;2024-02-14T05:27:04;4.10;;;1.52;;
3465;SDS011;1747;48.884;9.160;2024-02-14T05:29:31;5.13;;;1.85;;
3465;SDS011;1747;48.884;9.160;2024-02-14T05:31:58;3.85;;;1.50;;
3465;SDS011;1747;48.884;9.160;2024-02-14T05:34:26;2.33;;;1.25;;
3465;SDS011;1747;48.884;9.160;2024-02-14T05:36:53;5.15;;;1.75;;
3465;SDS011;1747;48.884;9.160;2024-02-14T05:39:20;3.83;;;1.48;;
3465;SDS011;1747;48.884;9.160;2024-02-14T05:41:47;4.13;;;1.77;;
3465;SDS011;1747;48.884;9.160;2024-02-14T05:44:15;4.22;;;1.50;;
3465;SDS011;1747;48.884;9.160;2024-02-14T05:46:41;3.78;;;1.73;;
3465;SDS011;1747;48.884;9.160;2024-02-14T05:49:08;6.05;;;2.50;;
3465;SDS011;1747;48.884;9.160;2024-02-14T05:51:37;6.10;;;2.75;;
3465;SDS011;1747;48.884;9.160;2024-02-14T05:54:04;7.78;;;3.67;;
3465;SDS011;1747;48.884;9.160;2024-02-14T05:56:31;10.63;;;3.60;;
3465;SDS011;1747;48.884;9.160;2024-02-14T05:58:57;7.45;;;3.63;;
3465;SDS011;1747;48.884;9.160;2024-02-14T06:01:24;5.38;;;3.10;;
3465;SDS011;1747;48.884;9.160;2024-02-14T06:03:51;7.70;;;3.55;;
3465;SDS011;1747;48.884;9.160;2024-02-14T06:06:18;5.63;;;3.20;;
3465;SDS011;1747;48.884;9.160;2024-02-14T06:08:46;5.85;;;3.55;;
3465;SDS011;1747;48.884;9.160;2024-02-14T06:11:13;8.50;;;3.67;;
3465;SDS011;1747;48.884;9.160;2024-02-14T06:13:41;5.55;;;3.20;;
3465;SDS011;1747;48.884;9.160;2024-02-14T06:16:08;6.65;;;3.42;;
3465;SDS011;1747;48.884;9.160;2024-02-14T06:18:36;6.50;;;3.20;;
3465;SDS011;1747;48.884;9.160;2024-02-14T06:21:04;5.00;;;3.20;;
3465;SDS011;1747;48.884;9.160;2024-02-14T06:23:31;8.25;;;3.58;;
3465;SDS011;1747;48.884;9.160;2024-02-14T06:25:59;7.40;;;3.67;;
3465;SDS011;1747;48.884;9.160;2024-02-14T06:28:26;7.43;;;3.80;;
3465;SDS011;1747;48.884;9.160;2024-02-14T06:30:53;8.30;;;3.90;;
3465;SDS011;1747;48.884;9.160;2024-02-14T06:33:20;10.52;;;3.88;;
3465;SDS011;1747;48.884;9.160;2024-02-14T06:35:48;9.18;;;3.85;;
3465;SDS011;1747;48.884;9.160;2024-02-14T06:38:15;11.07;;;3.97;;
3465;SDS011;1747;48.884;9.160;2024-02-14T06:40:42;5.40;;;3.47;;
3465;SDS011;1747;48.884;9.160;2024-02-14T06:43:10;5.28;;;3.30;;
3465;SDS011;1747;48.884;9.160;2024-02-14T06:45:37;6.00;;;3.65;;
3465;SDS011;1747;48.884;9.160;2024-02-14T06:48:04;8.95;;;3.53;;
3465;SDS011;1747;48.884;9.160;2024-02-14T06:50:33;6.60;;;3.70;;
3465;SDS011;1747;48.884;9.160;2024-02-14T06:53:00;7.35;;;3.53;;
3465;SDS011;1747;48.884;9.160;2024-02-14T06:55:27;7.43;;;4.05;;
3465;SDS011;1747;48.884;9.160;2024-02-14T06:57:55;5.97;;;3.65;;
3465;SDS011;1747;48.884;9.160;2024-02-14T07:00:24;8.55;;;3.65;;
3465;SDS011;1747;48.884;9.160;2024-02-14T07:02:50;5.53;;;3.47;;
3465;SDS011;1747;48.884;9.160;2024-02-14T07:05:17;6.65;;;3.78;;
3465;SDS011;1747;48.884;9.160;2024-02-14T07:07:44;5.93;;;3.25;;
3465;SDS011;1747;48.884;9.160;2024-02-14T07:10:11;8.63;;;4.20;;
3465;SDS011;1747;48.884;9.160;2024-02-14T07:12:38;5.95;;;3.17;;
3465;SDS011;1747;48.884;9.160;2024-02-14T07:15:05;6.00;;;3.20;;
3465;SDS011;1747;48.884;9.160;2024-02-14T07:17:34;5.15;;;3.42;;
3465;SDS011;1747;48.884;9.160;2024-02-14T07:20:01;10.13;;;3.83;;
3465;SDS011;1747;48.884;9.160;2024-02-14T07:22:28;7.35;;;3.53;;
3465;SDS011;1747;48.884;9.160;2024-02-14T07:24:56;5.40;;;3.55;;
3465;SDS011;1747;48.884;9.160;2024-02-14T07:27:23;6.47;;;3.38;;
3465;SDS011;1747;48.884;9.160;2024-02-14T07:29:50;6.43;;;3.30;;
3465;SDS011;1747;48.884;9.160;2024-02-14T07:32:16;5.72;;;2.97;;
3465;SDS011;1747;48.884;9.160;2024-02-14T07:34:45;4.75;;;3.17;;
3465;SDS011;1747;48.884;9.160;2024-02-14T07:37:12;6.53;;;2.40;;
3465;SDS011;1747;48.884;9.160;2024-02-14T07:39:40;3.42;;;2.10;;
3465;SDS011;1747;48.884;9.160;2024-02-14T07:42:07;4.55;;;1.80;;
3465;SDS011;1747;48.884;9.160;2024-02-14T07:44:34;9.93;;;2.40;;
3465;SDS011;1747;48.884;9.160;2024-02-14T07:47:01;8.20;;;2.30;;
3465;SDS011;1747;48.884;9.160;2024-02-14T07:49:28;7.13;;;2.10;;
3465;SDS011;1747;48.884;9.160;2024-02-14T07:51:57;4.72;;;1.48;;
3465;SDS011;1747;48.884;9.160;2024-02-14T07:54:25;4.05;;;1.70;;
3465;SDS011;1747;48.884;9.160;2024-02-14T07:56:54;3.40;;;1.40;;
3465;SDS011;1747;48.884;9.160;2024-02-14T07:59:23;5.15;;;1.08;;
3465;SDS011;1747;48.884;9.160;2024-02-14T08:02:16;4.57;;;0.90;;
3465;SDS011;1747;48.884;9.160;2024-02-14T08:04:43;5.43;;;1.40;;
3465;SDS011;1747;48.884;9.160;2024-02-14T08:07:11;2.20;;;1.08;;
3465;SDS011;1747;48.884;9.160;2024-02-14T08:09:38;3.75;;;1.10;;
3465;SDS011;1747;48.884;9.160;2024-02-14T08:12:05;2.38;;;1.20;;
3465;SDS011;1747;48.884;9.160;2024-02-14T08:14:35;3.90;;;1.33;;
3465;SDS011;1747;48.884;9.160;2024-02-14T08:17:05;4.50;;;1.35;;
3465;SDS011;1747;48.884;9.160;2024-02-14T08:19:32;4.30;;;1.30;;
3465;SDS011;1747;48.884;9.160;2024-02-14T08:22:06;4.20;;;1.10;;
3465;SDS011;1747;48.884;9.160;2024-02-14T08:24:38;4.63;;;1.20;;
3465;SDS011;1747;48.884;9.160;2024-02-14T08:27:08;3.42;;;1.20;;
3465;SDS011;1747;48.884;9.160;2024-02-14T08:29:36;3.00;;;1.20;;
3465;SDS011;1747;48.884;9.160;2024-02-14T08:32:12;4.72;;;1.33;;
3465;SDS011;1747;48.884;9.160;2024-02-14T08:34:39;1.92;;;1.13;;
3465;SDS011;1747;48.884;9.160;2024-02-14T08:37:07;6.28;;;1.13;;
3465;SDS011;1747;48.884;9.160;2024-02-14T08:39:42;1.70;;;1.17;;
3465;SDS011;1747;48.884;9.160;2024-02-14T08:42:10;4.10;;;1.20;;
3465;SDS011;1747;48.884;9.160;2024-02-14T08:44:42;3.13;;;0.85;;
3465;SDS011;1747;48.884;9.160;2024-02-14T08:47:17;3.47;;;1.02;;
3465;SDS011;1747;48.884;9.160;2024-02-14T08:49:52;3.42;;;0.82;;
3465;SDS011;1747;48.884;9.160;2024-02-14T08:52:22;5.72;;;1.00;;
3465;SDS011;1747;48.884;9.160;2024-02-14T08:54:54;4.13;;;1.15;;
3465;SDS011;1747;48.884;9.160;2024-02-14T08:57:25;1.73;;;1.00;;
3465;SDS011;1747;48.884;9.160;2024-02-14T08:59:53;1.73;;;1.13;;
3465;SDS011;1747;48.884;9.160;2024-02-14T09:02:21;4.85;;;1.90;;
3465;SDS011;1747;48.884;9.160;2024-02-14T09:04:50;2.88;;;1.15;;
3465;SDS011;1747;48.884;9.160;2024-02-14T09:07:17;4.75;;;1.10;;
3465;SDS011;1747;48.884;9.160;2024-02-14T09:09:44;5.50;;;1.13;;
3465;SDS011;1747;48.884;9.160;2024-02-14T09:12:12;2.40;;;0.90;;
3465;SDS011;1747;48.884;9.160;2024-02-14T09:14:40;2.13;;;1.00;;
3465;SDS011;1747;48.884;9.160;2024-02-14T09:17:07;10.50;;;1.20;;
3465;SDS011;1747;48.884;9.160;2024-02-14T09:19:35;2.22;;;1.30;;
3465;SDS011;1747;48.884;9.160;2024-02-14T09:22:03;3.05;;;1.20;;
3465;SDS011;1747;48.884;9.160;2024-02-14T09:24:31;4.20;;;1.02;;
3465;SDS011;1747;48.884;9.160;2024-02-14T09:26:58;4.90;;;1.52;;
3465;SDS011;1747;48.884;9.160;2024-02-14T09:29:28;1.58;;;0.95;;
3465;SDS011;1747;48.884;9.160;2024-02-14T09:31:55;1.40;;;0.80;;
3465;SDS011;1747;48.884;9.160;2024-02-14T09:34:23;1.42;;;0.95;;
3465;SDS011;1747;48.884;9.160;2024-02-14T09:36:50;1.85;;;0.90;;
3465;SDS011;1747;48.884;9.160;2024-02-14T09:39:18;2.53;;;1.10;;
3465;SDS011;1747;48.884;9.160;2024-02-14T09:41:46;1.67;;;1.10;;
3465;SDS011;1747;48.884;9.160;2024-02-14T09:44:19;3.28;;;1.33;;
3465;SDS011;1747;48.884;9.160;2024-02-14T09:46:50;2.00;;;1.10;;
3465;SDS011;1747;48.884;9.160;2024-02-14T09:49:17;2.88;;;0.95;;
3465;SDS011;1747;48.884;9.160;2024-02-14T09:51:45;3.38;;;1.25;;
3465;SDS011;1747;48.884;9.160;2024-02-14T09:54:15;3.03;;;0.80;;
3465;SDS011;1747;48.884;9.160;2024-02-14T09:56:47;2.65;;;1.00;;
3465;SDS011;1747;48.884;9.160;2024-02-14T09:59:18;2.95;;;1.23;;
3465;SDS011;1747;48.884;9.160;2024-02-14T10:01:46;6.40;;;1.30;;
3465;SDS011;1747;48.884;9.160;2024-02-14T10:04:17;1.52;;;0.90;;
3465;SDS011;1747;48.884;9.160;2024-02-14T10:06:45;3.88;;;1.13;;
3465;SDS011;1747;48.884;9.160;2024-02-14T10:09:17;1.10;;;1.00;;
3465;SDS011;1747;48.884;9.160;2024-02-14T10:11:45;1.63;;;0.95;;
3465;SDS011;1747;48.884;9.160;2024-02-14T10:14:12;4.55;;;1.10;;
3465;SDS011;1747;48.884;9.160;2024-02-14T10:16:39;3.38;;;1.08;;
3465;SDS011;1747;48.884;9.160;2024-02-14T10:19:13;1.85;;;1.10;;
3465;SDS011;1747;48.884;9.160;2024-02-14T10:21:42;2.78;;;1.00;;
3465;SDS011;1747;48.884;9.160;2024-02-14T10:24:09;2.20;;;1.00;;
3465;SDS011;1747;48.884;9.160;2024-02-14T10:26:40;4.05;;;0.90;;
3465;SDS011;1747;48.884;9.160;2024-02-14T10:29:08;2.95;;;1.05;;
3465;SDS011;1747;48.884;9.160;2024-02-14T10:31:37;2.53;;;0.90;;
3465;SDS011;1747;48.884;9.160;2024-02-14T10:34:03;1.70;;;0.98;;
3465;SDS011;1747;48.884;9.160;2024-02-14T10:36:32;1.80;;;1.00;;
3465;SDS011;1747;48.884;9.160;2024-02-14T10:39:09;3.35;;;1.15;;
3465;SDS011;1747;48.884;9.160;2024-02-14T10:41:41;1.92;;;1.17;;
3465;SDS011;1747;48.884;9.160;2024-02-14T10:44:15;2.58;;;1.30;;
3465;SDS011;1747;48.884;9.160;2024-02-14T10:46:56;2.45;;;1.10;;
3465;SDS011;1747;48.884;9.160;2024-02-14T10:49:29;5.82;;;1.30;;
3465;SDS011;1747;48.884;9.160;2024-02-14T10:51:59;1.33;;;0.98;;
3465;SDS011;1747;48.884;9.160;2024-02-14T10:54:31;2.13;;;1.10;;
3465;SDS011;1747;48.884;9.160;2024-02-14T10:56:59;3.55;;;1.58;;
3465;SDS011;1747;48.884;9.160;2024-02-14T10:59:37;1.80;;;1.10;;
3465;SDS011;1747;48.884;9.160;2024-02-14T11:02:06;1.20;;;0.90;;
3465;SDS011;1747;48.884;9.160;2024-02-14T11:04:34;3.53;;;1.30;;
3465;SDS011;1747;48.884;9.160;2024-02-14T11:07:02;4.63;;;1.20;;
3465;SDS011;1747;48.884;9.160;2024-02-14T11:09:35;2.08;;;0.98;;
3465;SDS011;1747;48.884;9.160;2024-02-14T11:12:06;2.05;;;0.93;;
3465;SDS011;1747;48.884;9.160;2024-02-14T11:14:34;2.03;;;0.90;;
3465;SDS011;1747;48.884;9.160;2024-02-14T11:17:03;1.50;;;0.95;;
3465;SDS011;1747;48.884;9.160;2024-02-14T11:19:34;2.65;;;1.10;;
3465;SDS011;1747;48.884;9.160;2024-02-14T11:22:09;4.47;;;1.38;;
3465;SDS011;1747;48.884;9.160;2024-02-14T11:24:42;2.42;;;0.90;;
3465;SDS011;1747;48.884;9.160;2024-02-14T11:27:12;1.52;;;1.02;;
3465;SDS011;1747;48.884;9.160;2024-02-14T11:29:39;2.63;;;0.93;;
3465;SDS011;1747;48.884;9.160;2024-02-14T11:32:07;2.08;;;0.95;;
3465;SDS011;1747;48.884;9.160;2024-02-14T11:34:35;3.28;;;1.38;;
3465;SDS011;1747;48.884;9.160;2024-02-14T11:37:02;2.20;;;0.82;;
3465;SDS011;1747;48.884;9.160;2024-02-14T11:39:30;2.60;;;1.08;;
3465;SDS011;1747;48.884;9.160;2024-02-14T11:42:00;2.30;;;1.00;;
3465;SDS011;1747;48.884;9.160;2024-02-14T11:44:27;2.45;;;0.95;;
3465;SDS011;1747;48.884;9.160;2024-02-14T11:46:54;2.10;;;0.82;;
3465;SDS011;1747;48.884;9.160;2024-02-14T11:49:21;2.97;;;1.15;;
3465;SDS011;1747;48.884;9.160;2024-02-14T11:51:48;3.25;;;1.08;;
3465;SDS011;1747;48.884;9.160;2024-02-14T11:54:15;4.05;;;1.80;;
3465;SDS011;1747;48.884;9.160;2024-02-14T11:56:46;4.47;;;1.63;;
3465;SDS011;1747;48.884;9.160;2024-02-14T11:59:14;2.90;;;1.42;;
3465;SDS011;1747;48.884;9.160;2024-02-14T12:01:45;4.13;;;1.33;;
3465;SDS011;1747;48.884;9.160;2024-02-14T12:04:13;4.03;;;1.42;;
3465;SDS011;1747;48.884;9.160;2024-02-14T12:06:44;1.65;;;1.02;;
3465;SDS011;1747;48.884;9.160;2024-02-14T12:09:11;5.03;;;1.70;;
3465;SDS011;1747;48.884;9.160;2024-02-14T12:11:39;2.72;;;2.00;;
3465;SDS011;1747;48.884;9.160;2024-02-14T12:14:08;2.60;;;1.70;;
3465;SDS011;1747;48.884;9.160;2024-02-14T12:16:37;3.15;;;1.55;;
3465;SDS011;1747;48.884;9.160;2024-02-14T12:19:05;4.53;;;1.70;;
3465;SDS011;1747;48.884;9.160;2024-02-14T12:21:35;3.67;;;1.27;;
3465;SDS011;1747;48.884;9.160;2024-02-14T12:24:03;1.63;;;0.90;;
3465;SDS011;1747;48.884;9.160;2024-02-14T12:26:39;4.65;;;1.05;;
3465;SDS011;1747;48.884;9.160;2024-02-14T12:29:08;4.32;;;1.33;;
3465;SDS011;1747;48.884;9.160;2024-02-14T12:31:40;5.78;;;1.17;;
3465;SDS011;1747;48.884;9.160;2024-02-14T12:34:10;1.10;;;0.95;;
3465;SDS011;1747;48.884;9.160;2024-02-14T12:36:37;1.58;;;0.90;;
3465;SDS011;1747;48.884;9.160;2024-02-14T12:39:04;1.63;;;0.80;;
3465;SDS011;1747;48.884;9.160;2024-02-14T12:41:34;1.83;;;1.10;;
3465;SDS011;1747;48.884;9.160;2024-02-14T12:44:04;1.70;;;0.80;;
3465;SDS011;1747;48.884;9.160;2024-02-14T12:46:32;4.75;;;1.15;;
3465;SDS011;1747;48.884;9.160;2024-02-14T12:49:00;1.50;;;0.75;;
3465;SDS011;1747;48.884;9.160;2024-02-14T12:51:28;1.20;;;0.77;;
3465;SDS011;1747;48.884;9.160;2024-02-14T12:53:56;2.75;;;0.70;;
3465;SDS011;1747;48.884;9.160;2024-02-14T12:56:22;3.05;;;0.80;;
3465;SDS011;1747;48.884;9.160;2024-02-14T12:58:50;1.05;;;0.57;;
3465;SDS011;1747;48.884;9.160;2024-02-14T13:01:16;1.00;;;0.40;;
3465;SDS011;1747;48.884;9.160;2024-02-14T13:03:44;0.82;;;0.38;;
3465;SDS011;1747;48.884;9.160;2024-02-14T13:06:12;0.30;;;0.30;;
3465;SDS011;1747;48.884;9.160;2024-02-14T13:08:40;0.60;;;0.30;;
3465;SDS011;1747;48.884;9.160;2024-02-14T13:11:07;0.70;;;0.30;;
3465;SDS011;1747;48.884;9.160;2024-02-14T13:13:34;1.20;;;0.50;;
3465;SDS011;1747;48.884;9.160;2024-02-14T13:16:01;1.92;;;0.70;;
3465;SDS011;1747;48.884;9.160;2024-02-14T13:18:31;1.90;;;0.40;;
3465;SDS011;1747;48.884;9.160;2024-02-14T13:20:58;0.40;;;0.40;;
3465;SDS011;1747;48.884;9.160;2024-02-14T13:23:27;0.90;;;0.50;;
3465;SDS011;1747;48.884;9.160;2024-02-14T13:25:56;0.52;;;0.50;;
3465;SDS011;1747;48.884;9.160;2024-02-14T13:28:24;0.60;;;0.55;;
3465;SDS011;1747;48.884;9.160;2024-02-14T13:30:51;1.10;;;0.60;;
3465;SDS011;1747;48.884;9.160;2024-02-14T13:33:18;2.03;;;0.40;;
3465;SDS011;1747;48.884;9.160;2024-02-14T13:35:47;2.35;;;0.57;;
3465;SDS011;1747;48.884;9.160;2024-02-14T13:38:14;0.63;;;0.45;;
3465;SDS011;1747;48.884;9.160;2024-02-14T13:40:43;0.73;;;0.40;;
3465;SDS011;1747;48.884;9.160;2024-02-14T13:43:10;1.02;;;0.50;;
3465;SDS011;1747;48.884;9.160;2024-02-14T13:45:41;1.05;;;0.50;;
3465;SDS011;1747;48.884;9.160;2024-02-14T13:48:09;1.38;;;0.43;;
3465;SDS011;1747;48.884;9.160;2024-02-14T13:50:36;0.57;;;0.40;;
3465;SDS011;1747;48.884;9.160;2024-02-14T13:53:04;0.20;;;0.20;;
3465;SDS011;1747;48.884;9.160;2024-02-14T13:55:30;0.20;;;0.20;;
3465;SDS011;1747;48.884;9.160;2024-02-14T13:57:59;0.70;;;0.30;;
3465;SDS011;1747;48.884;9.160;2024-02-14T14:00:25;1.25;;;0.28;;
3465;SDS011;1747;48.884;9.160;2024-02-14T14:02:53;0.20;;;0.20;;
3465;SDS011;1747;48.884;9.160;2024-02-14T14:05:20;0.63;;;0.40;;
3465;SDS011;1747;48.884;9.160;2024-02-14T14:07:47;1.58;;;0.45;;
3465;SDS011;1747;48.884;9.160;2024-02-14T14:10:14;0.57;;;0.30;;
3465;SDS011;1747;48.884;9.160;2024-02-14T14:12:42;1.00;;;0.30;;
3465;SDS011;1747;48.884;9.160;2024-02-14T14:15:10;0.17;;;0.10;;
3465;SDS011;1747;48.884;9.160;2024-02-14T14:17:37;0.20;;;0.20;;
3465;SDS011;1747;48.884;9.160;2024-02-14T14:20:04;0.93;;;0.30;;
3465;SDS011;1747;48.884;9.160;2024-02-14T14:22:33;2.65;;;0.30;;
3465;SDS011;1747;48.884;9.160;2024-02-14T14:25:00;2.33;;;0.40;;
3465;SDS011;1747;48.884;9.160;2024-02-14T14:27:27;1.25;;;0.40;;
3465;SDS011;1747;48.884;9.160;2024-02-14T14:29:54;2.00;;;0.30;;
3465;SDS011;1747;48.884;9.160;2024-02-14T14:32:22;0.68;;;0.40;;
3465;SDS011;1747;48.884;9.160;2024-02-14T14:34:49;0.85;;;0.45;;
3465;SDS011;1747;48.884;9.160;2024-02-14T14:37:16;1.15;;;0.50;;
3465;SDS011;1747;48.884;9.160;2024-02-14T14:39:43;0.68;;;0.50;;
3465;SDS011;1747;48.884;9.160;2024-02-14T14:42:10;0.88;;;0.50;;
3465;SDS011;1747;48.884;9.160;2024-02-14T14:44:36;0.52;;;0.30;;
3465;SDS011;1747;48.884;9.160;2024-02-14T14:47:04;0.30;;;0.30;;
3465;SDS011;1747;48.884;9.160;2024-02-14T14:49:33;0.20;;;0.20;;
3465;SDS011;1747;48.884;9.160;2024-02-14T14:52:00;1.42;;;0.30;;
3465;SDS011;1747;48.884;9.160;2024-02-14T14:54:29;0.82;;;0.40;;
3465;SDS011;1747;48.884;9.160;2024-02-14T14:56:56;0.40;;;0.30;;
3465;SDS011;1747;48.884;9.160;2024-02-14T14:59:23;4.90;;;0.47;;
3465;SDS011;1747;48.884;9.160;2024-02-14T15:01:50;0.80;;;0.30;;
3465;SDS011;1747;48.884;9.160;2024-02-14T15:04:19;0.28;;;0.28;;
3465;SDS011;1747;48.884;9.160;2024-02-14T15:06:47;0.45;;;0.25;;
3465;SDS011;1747;48.884;9.160;2024-02-14T15:09:15;1.23;;;0.30;;
3465;SDS011;1747;48.884;9.160;2024-02-14T15:11:42;1.15;;;0.30;;
3465;SDS011;1747;48.884;9.160;2024-02-14T15:14:12;0.60;;;0.38;;
3465;SDS011;1747;48.884;9.160;2024-02-14T15:16:39;0.63;;;0.30;;
3465;SDS011;1747;48.884;9.160;2024-02-14T15:19:06;0.60;;;0.40;;
3465;SDS011;1747;48.884;9.160;2024-02-14T15:21:34;0.30;;;0.30;;